Terminal Aerodrome Forecast
Issued by NWS

Home | Current Version | Previous Version | Text Only | Print | Product List | Glossary On
Versions: 1 2 3 4 5 6 7 8 9 10 11 12
000
FTPA31 PHFO 301729
TAFHJH
TAF
PHJH 301729Z 3018/0118 09011G19KT P6SM VCSH BKN035 BKN050
     FM302000 08013G21KT P6SM SCT035 SCT050=

USA.gov is the U.S. government's official web portal to all federal, state and local government web resources and services.